Terminal Aerodrome Forecast
Issued by NWS

Home | Current Version | Previous Version | Text Only | Print | Product List | Glossary Off
Versions: 1 2 3 4 5 6 7 8 9 10 11 12 13

936
FTUS43 KGRB 040118 AAA
TAFCWA
TAF AMD
KCWA 040118Z 0401/0424 09007KT P6SM VCSH BKN090
     FM040400 33006KT P6SM SCT040 BKN070
     FM040600 34009KT P6SM SCT070
     FM041300 35014G22KT P6SM BKN035 BKN070=

USA.gov is the U.S. government's official web portal to all federal, state and local government web resources and services.